Terminal Aerodrome Forecast
Issued by NWS

Home | Current Version | Previous Version | Text Only | Print | Product List | Glossary On
Versions: 1 2 3 4 5 6 7 8 9 10 11 12 13 14 15 16 17 18 19 20 21 22 23
000
FTUS43 KDVN 211800 AAA
TAFCID
TAF AMD
KCID 211842Z 2119/2218 26008KT P6SM VCTS SCT025CB BKN050
      TEMPO 2119/2121 5SM BR BKN025
     FM212100 33015G20KT P6SM BKN035
     FM220000 34012KT P6SM FEW070
     FM221500 35014KT P6SM SKC=

USA.gov is the U.S. government's official web portal to all federal, state and local government web resources and services.